createdAt,value
2018-09-15T00:00:58.173Z,3.73
2018-09-15T00:03:27.353Z,3.63
2018-09-15T00:05:55.538Z,3.50
2018-09-15T00:08:24.194Z,3.73
2018-09-15T00:10:52.345Z,4.07
2018-09-15T00:13:21.257Z,3.27
2018-09-15T00:15:49.658Z,3.77
2018-09-15T00:18:18.354Z,3.60
2018-09-15T00:20:46.542Z,4.40
2018-09-15T00:23:16.666Z,3.63
2018-09-15T00:25:44.834Z,4.00
2018-09-15T00:28:13.293Z,3.87
2018-09-15T00:30:42.113Z,3.90
2018-09-15T00:33:10.347Z,3.80
2018-09-15T00:35:38.683Z,3.67
2018-09-15T00:38:07.011Z,3.30
2018-09-15T00:40:35.175Z,3.40
2018-09-15T00:43:03.370Z,3.37
2018-09-15T00:45:31.681Z,2.70
2018-09-15T00:47:59.873Z,3.40
2018-09-15T00:50:28.045Z,7.23
2018-09-15T00:52:56.218Z,10.10
2018-09-15T00:55:24.433Z,13.17
2018-09-15T01:00:27.418Z,10.40
2018-09-15T01:02:56.174Z,10.03
2018-09-15T01:05:24.357Z,9.67
2018-09-15T01:07:53.194Z,8.60
2018-09-15T01:10:21.365Z,7.90
2018-09-15T01:12:50.170Z,7.60
2018-09-15T01:15:18.354Z,7.07
2018-09-15T01:17:46.511Z,6.07
2018-09-15T01:20:15.390Z,5.60
2018-09-15T01:22:43.555Z,5.33
2018-09-15T01:25:12.173Z,4.23
2018-09-15T01:27:40.330Z,4.50
2018-09-15T01:30:08.798Z,4.40
2018-09-15T01:32:36.982Z,4.07
2018-09-15T01:35:05.159Z,3.87
2018-09-15T01:37:33.358Z,4.10
2018-09-15T01:40:01.644Z,4.30
2018-09-15T01:42:30.182Z,3.60
2018-09-15T01:44:58.341Z,3.67
2018-09-15T01:47:27.474Z,3.83
2018-09-15T01:49:55.677Z,3.40
2018-09-15T01:52:23.847Z,3.90
2018-09-15T01:54:51.994Z,4.03
2018-09-15T01:57:20.295Z,4.27
2018-09-15T01:59:48.849Z,5.20
2018-09-15T02:02:19.595Z,4.40
2018-09-15T02:04:48.957Z,3.90
2018-09-15T02:07:17.189Z,4.30
2018-09-15T02:09:45.369Z,4.27
2018-09-15T02:12:13.518Z,4.20
2018-09-15T02:14:41.701Z,4.30
2018-09-15T02:17:10.145Z,4.03
2018-09-15T02:19:38.322Z,4.07
2018-09-15T02:22:06.538Z,4.50
2018-09-15T02:24:35.034Z,4.47
2018-09-15T02:27:03.237Z,4.90
2018-09-15T02:29:31.471Z,5.27
2018-09-15T02:31:59.633Z,5.00
2018-09-15T02:34:27.820Z,5.07
2018-09-15T02:36:55.984Z,4.83
2018-09-15T02:39:24.176Z,4.30
2018-09-15T02:41:52.423Z,4.43
2018-09-15T02:44:20.581Z,4.83
2018-09-15T02:46:48.848Z,4.77
2018-09-15T02:49:17.338Z,5.90
2018-09-15T02:51:45.962Z,5.43
2018-09-15T02:54:14.183Z,6.10
2018-09-15T02:56:42.366Z,6.60
2018-09-15T02:59:10.558Z,6.23
2018-09-15T03:01:38.763Z,7.33
2018-09-15T03:04:07.031Z,6.10
2018-09-15T03:06:35.582Z,5.93
2018-09-15T03:09:04.806Z,6.63
2018-09-15T03:11:33.267Z,5.50
2018-09-15T03:14:01.795Z,5.20
2018-09-15T03:16:30.050Z,5.43
2018-09-15T03:19:01.011Z,5.40
2018-09-15T03:21:31.374Z,4.57
2018-09-15T03:24:00.159Z,5.23
2018-09-15T03:26:28.346Z,4.80
2018-09-15T03:28:56.490Z,5.10
2018-09-15T03:31:25.071Z,4.80
2018-09-15T03:33:53.369Z,5.47
2018-09-15T03:36:21.631Z,4.80
2018-09-15T03:38:49.834Z,5.90
2018-09-15T03:41:18.014Z,5.33
2018-09-15T03:43:46.294Z,5.83
2018-09-15T03:46:14.479Z,6.63
2018-09-15T03:48:43.026Z,7.23
2018-09-15T03:51:11.938Z,6.93
2018-09-15T03:53:40.094Z,7.40
2018-09-15T03:56:08.378Z,7.30
2018-09-15T03:58:36.586Z,6.90
2018-09-15T04:01:04.774Z,8.20
2018-09-15T04:03:33.275Z,7.77
2018-09-15T04:06:01.414Z,8.30
2018-09-15T04:08:29.609Z,6.77
2018-09-15T04:10:58.072Z,5.73
2018-09-15T04:13:26.261Z,6.43
2018-09-15T04:15:54.445Z,5.83
2018-09-15T04:18:22.635Z,6.50
2018-09-15T04:20:50.830Z,6.20
2018-09-15T04:23:19.215Z,6.50
2018-09-15T04:25:48.144Z,6.83
2018-09-15T04:28:17.226Z,7.13
2018-09-15T04:30:45.361Z,7.10
2018-09-15T04:33:13.543Z,7.33
2018-09-15T04:35:41.750Z,7.93
2018-09-15T04:38:09.904Z,7.03
2018-09-15T04:40:38.129Z,8.10
2018-09-15T04:43:07.138Z,8.37
2018-09-15T04:45:35.652Z,7.73
2018-09-15T04:48:03.825Z,9.73
2018-09-15T04:50:32.602Z,9.63
2018-09-15T04:53:00.866Z,8.50
2018-09-15T04:55:29.043Z,8.80
2018-09-15T04:57:57.224Z,9.07
2018-09-15T05:00:25.386Z,7.73
2018-09-15T05:02:53.586Z,8.27
2018-09-15T05:05:21.753Z,7.43
2018-09-15T05:07:49.918Z,7.43
2018-09-15T05:10:18.086Z,6.53
2018-09-15T05:12:46.277Z,6.77
2018-09-15T05:15:14.438Z,7.43
2018-09-15T05:17:42.638Z,8.67
2018-09-15T05:20:10.784Z,9.13
2018-09-15T05:22:39.103Z,8.70
2018-09-15T05:25:07.546Z,8.07
2018-09-15T05:27:35.777Z,8.27
2018-09-15T05:30:04.309Z,9.47
2018-09-15T05:32:32.502Z,9.20
2018-09-15T05:35:01.165Z,9.50
2018-09-15T05:37:29.366Z,8.23
2018-09-15T05:39:57.543Z,8.97
2018-09-15T05:42:25.731Z,7.83
2018-09-15T05:44:53.897Z,9.40
2018-09-15T05:47:22.085Z,8.00
2018-09-15T05:49:50.578Z,7.47
2018-09-15T05:52:18.769Z,7.27
2018-09-15T05:54:46.964Z,6.57
2018-09-15T05:57:15.155Z,6.30
2018-09-15T05:59:43.295Z,5.90
2018-09-15T06:02:12.330Z,5.93
2018-09-15T06:04:40.526Z,5.70
2018-09-15T06:07:08.694Z,5.27
2018-09-15T06:09:36.857Z,5.10
2018-09-15T06:12:04.993Z,4.40
2018-09-15T06:14:33.164Z,4.40
2018-09-15T06:17:01.722Z,4.20
2018-09-15T06:19:30.746Z,4.57
2018-09-15T06:21:59.046Z,4.10
2018-09-15T06:24:27.234Z,5.03
2018-09-15T06:26:56.114Z,4.40
2018-09-15T06:29:24.322Z,4.60
2018-09-15T06:31:53.122Z,5.60
2018-09-15T06:34:21.482Z,5.87
2018-09-15T06:36:49.710Z,5.20
2018-09-15T06:39:17.881Z,4.60
2018-09-15T06:41:46.074Z,4.28
2018-09-15T06:44:14.266Z,4.12
2018-09-15T06:46:42.449Z,4.20
2018-09-15T06:49:10.642Z,3.65
2018-09-15T06:51:38.789Z,4.00
2018-09-15T06:54:08.417Z,3.85
2018-09-15T06:56:36.630Z,4.25
2018-09-15T06:59:05.094Z,3.42
2018-09-15T07:01:33.371Z,3.52
2018-09-15T07:04:01.566Z,4.83
2018-09-15T07:06:29.990Z,4.90
2018-09-15T07:08:58.126Z,4.15
2018-09-15T07:11:26.321Z,4.22
2018-09-15T07:13:54.586Z,3.67
2018-09-15T07:16:22.844Z,4.35
2018-09-15T07:18:51.042Z,3.85
2018-09-15T07:21:19.824Z,3.60
2018-09-15T07:23:48.017Z,4.03
2018-09-15T07:26:16.186Z,3.95
2018-09-15T07:28:44.382Z,4.58
2018-09-15T07:31:12.616Z,4.40
2018-09-15T07:33:40.738Z,4.00
2018-09-15T07:36:08.964Z,4.00
2018-09-15T07:38:37.722Z,4.42
2018-09-15T07:41:05.890Z,3.85
2018-09-15T07:43:34.994Z,4.00
2018-09-15T07:46:03.189Z,4.20
2018-09-15T07:48:31.353Z,3.62
2018-09-15T07:50:59.575Z,3.62
2018-09-15T07:53:27.726Z,3.65
2018-09-15T07:55:55.913Z,4.60
2018-09-15T07:58:24.066Z,4.58
2018-09-15T08:00:53.051Z,5.15
2018-09-15T08:03:21.833Z,4.65
2018-09-15T08:05:50.045Z,4.05
2018-09-15T08:08:18.202Z,3.15
2018-09-15T08:10:47.243Z,3.55
2018-09-15T08:13:15.470Z,4.47
2018-09-15T08:15:44.066Z,4.22
2018-09-15T08:18:13.092Z,4.03
2018-09-15T08:20:41.277Z,3.20
2018-09-15T08:23:09.501Z,3.90
2018-09-15T08:25:37.708Z,3.80
2018-09-15T08:28:05.981Z,3.60
2018-09-15T08:30:34.165Z,3.50
2018-09-15T08:33:02.301Z,4.25
2018-09-15T08:35:30.559Z,3.25
2018-09-15T08:37:59.002Z,3.08
2018-09-15T08:40:27.166Z,2.72
2018-09-15T08:42:55.369Z,3.35
2018-09-15T08:45:23.565Z,3.70
2018-09-15T08:47:52.198Z,3.30
2018-09-15T08:50:20.786Z,3.50
2018-09-15T08:52:48.968Z,2.92
2018-09-15T08:55:17.413Z,3.95
2018-09-15T08:57:45.594Z,3.10
2018-09-15T09:00:17.285Z,3.60
2018-09-15T09:02:45.438Z,3.42
2018-09-15T09:05:13.630Z,3.08
2018-09-15T09:07:42.146Z,2.80
2018-09-15T09:10:10.356Z,2.95
2018-09-15T09:12:38.533Z,3.45
2018-09-15T09:15:06.680Z,2.83
2018-09-15T09:17:35.072Z,3.75
2018-09-15T09:20:03.752Z,2.45
2018-09-15T09:22:31.897Z,2.65
2018-09-15T09:25:00.746Z,3.42
2018-09-15T09:27:28.938Z,3.15
2018-09-15T09:29:57.090Z,3.10
2018-09-15T09:32:25.657Z,2.30
2018-09-15T09:34:54.097Z,2.12
2018-09-15T09:37:22.319Z,2.20
2018-09-15T09:39:50.550Z,2.20
2018-09-15T09:42:19.946Z,2.70
2018-09-15T09:44:48.182Z,1.85
2018-09-15T09:47:16.357Z,1.37
2018-09-15T09:49:44.625Z,1.50
2018-09-15T09:52:13.869Z,1.35
2018-09-15T09:54:42.040Z,1.30
2018-09-15T09:57:10.607Z,1.30
2018-09-15T09:59:38.837Z,1.02
2018-09-15T10:02:12.877Z,1.37
2018-09-15T10:04:42.094Z,1.52
2018-09-15T10:07:11.207Z,1.10
2018-09-15T10:09:39.239Z,0.70
2018-09-15T10:12:07.458Z,0.85
2018-09-15T10:14:35.850Z,0.85
2018-09-15T10:17:04.018Z,0.70
2018-09-15T10:19:32.210Z,0.60
2018-09-15T10:22:00.798Z,0.82
2018-09-15T10:24:29.022Z,2.75
2018-09-15T10:26:57.196Z,1.07
2018-09-15T10:29:25.594Z,0.85
2018-09-15T10:31:53.909Z,0.90
2018-09-15T10:34:22.092Z,0.80
2018-09-15T10:36:50.524Z,0.72
2018-09-15T10:39:18.678Z,0.60
2018-09-15T10:41:46.847Z,0.70
2018-09-15T10:44:15.088Z,0.70
2018-09-15T10:46:43.299Z,0.55
2018-09-15T10:49:11.482Z,0.88
2018-09-15T10:51:39.675Z,0.80
2018-09-15T10:54:07.950Z,0.93
2018-09-15T10:56:36.124Z,0.70
2018-09-15T10:59:04.378Z,0.98
2018-09-15T11:01:32.578Z,0.60
2018-09-15T11:04:01.258Z,0.78
2018-09-15T11:06:29.639Z,0.90
2018-09-15T11:08:57.800Z,0.70
2018-09-15T11:11:25.994Z,1.70
2018-09-15T11:13:56.154Z,0.88
2018-09-15T11:16:24.342Z,0.62
2018-09-15T11:18:52.546Z,0.85
2018-09-15T11:21:20.730Z,0.70
2018-09-15T11:23:48.873Z,0.60
2018-09-15T11:26:17.063Z,0.60
2018-09-15T11:28:47.909Z,0.80
2018-09-15T11:31:15.981Z,0.82
2018-09-15T11:33:44.851Z,0.70
2018-09-15T11:36:13.040Z,1.00
2018-09-15T11:38:41.321Z,0.57
2018-09-15T11:41:09.676Z,0.60
2018-09-15T11:43:37.818Z,0.70
2018-09-15T11:46:06.882Z,0.78
2018-09-15T11:48:35.031Z,0.57
2018-09-15T11:51:03.223Z,0.55
2018-09-15T11:53:31.555Z,0.53
2018-09-15T11:55:59.738Z,0.62
2018-09-15T11:58:27.899Z,0.70
2018-09-15T12:01:00.108Z,0.60
2018-09-15T12:03:30.245Z,0.53
2018-09-15T12:05:58.530Z,0.68
2018-09-15T12:08:26.710Z,0.80
2018-09-15T12:10:54.862Z,0.60
2018-09-15T12:13:23.081Z,0.60
2018-09-15T12:15:51.323Z,0.65
2018-09-15T12:18:19.560Z,0.55
2018-09-15T12:20:47.714Z,0.55
2018-09-15T12:23:15.885Z,0.60
2018-09-15T12:25:50.458Z,0.60
2018-09-15T12:28:18.658Z,0.85
2018-09-15T12:30:46.855Z,0.85
2018-09-15T12:33:15.056Z,1.10
2018-09-15T12:35:43.429Z,0.82
2018-09-15T12:38:11.626Z,0.70
2018-09-15T12:40:39.823Z,0.57
2018-09-15T12:43:08.695Z,0.82
2018-09-15T12:45:36.862Z,0.70
2018-09-15T12:48:05.224Z,0.82
2018-09-15T12:50:33.389Z,0.70
2018-09-15T12:53:01.593Z,0.65
2018-09-15T12:55:29.791Z,0.88
2018-09-15T12:57:58.113Z,0.68
2018-09-15T13:00:26.407Z,0.70
2018-09-15T13:02:54.599Z,0.55
2018-09-15T13:05:22.819Z,0.70
2018-09-15T13:07:51.026Z,0.75
2018-09-15T13:10:19.217Z,0.80
2018-09-15T13:12:47.415Z,0.80
2018-09-15T13:15:15.631Z,0.70
2018-09-15T13:17:44.859Z,1.00
2018-09-15T13:20:13.021Z,0.70
2018-09-15T13:22:41.195Z,0.70
2018-09-15T13:25:09.364Z,0.70
2018-09-15T13:27:38.234Z,0.68
2018-09-15T13:30:06.958Z,0.85
2018-09-15T13:32:35.026Z,0.60
2018-09-15T13:35:03.312Z,0.80
2018-09-15T13:37:31.506Z,0.50
2018-09-15T13:39:59.734Z,0.50
2018-09-15T13:42:27.946Z,0.55
2018-09-15T13:44:56.365Z,0.53
2018-09-15T13:47:24.537Z,0.50
2018-09-15T13:49:52.759Z,0.53
2018-09-15T13:52:20.959Z,0.72
2018-09-15T13:54:49.106Z,0.70
2018-09-15T13:57:17.319Z,0.57
2018-09-15T13:59:45.541Z,0.70
2018-09-15T14:02:13.686Z,0.50
2018-09-15T14:04:41.914Z,0.70
2018-09-15T14:07:10.082Z,0.50
2018-09-15T14:09:43.476Z,0.72
2018-09-15T14:12:08.514Z,0.65
2018-09-15T14:14:36.751Z,0.68
2018-09-15T14:17:05.594Z,0.70
2018-09-15T14:19:33.717Z,0.60
2018-09-15T14:22:02.402Z,0.70
2018-09-15T14:24:30.557Z,0.70
2018-09-15T14:26:58.736Z,0.70
2018-09-15T14:29:26.983Z,0.60
2018-09-15T14:31:55.165Z,0.53
2018-09-15T14:34:23.362Z,0.65
2018-09-15T14:36:51.855Z,0.90
2018-09-15T14:39:20.121Z,0.55
2018-09-15T14:41:48.739Z,0.80
2018-09-15T14:44:17.203Z,0.80
2018-09-15T14:46:45.316Z,0.90
2018-09-15T14:49:13.506Z,0.60
2018-09-15T14:51:41.715Z,0.70
2018-09-15T14:54:09.930Z,0.70
2018-09-15T14:56:38.126Z,0.60
2018-09-15T14:59:06.510Z,0.70
2018-09-15T15:01:34.766Z,0.60
2018-09-15T15:04:02.987Z,0.53
2018-09-15T15:06:31.231Z,0.60
2018-09-15T15:08:59.451Z,0.65
2018-09-15T15:11:27.658Z,0.60
2018-09-15T15:16:31.518Z,0.80
2018-09-15T15:19:00.602Z,0.78
2018-09-15T15:21:28.837Z,0.75
2018-09-15T15:23:57.039Z,0.53
2018-09-15T15:26:25.293Z,0.50
2018-09-15T15:28:53.576Z,0.80
2018-09-15T15:31:21.839Z,0.93
2018-09-15T15:33:50.057Z,0.75
2018-09-15T15:36:18.230Z,0.90
2018-09-15T15:38:46.410Z,1.10
2018-09-15T15:41:14.602Z,1.20
2018-09-15T15:43:42.868Z,0.90
2018-09-15T15:46:11.396Z,0.82
2018-09-15T15:48:39.639Z,0.78
2018-09-15T15:51:07.873Z,0.90
2018-09-15T15:53:36.102Z,0.55
2018-09-15T15:56:04.688Z,0.68
2018-09-15T15:58:33.145Z,0.80
2018-09-15T16:01:01.218Z,1.07
2018-09-15T16:03:30.688Z,0.70
2018-09-15T16:05:59.629Z,1.22
2018-09-15T16:08:29.821Z,1.12
2018-09-15T16:10:58.865Z,0.75
2018-09-15T16:13:27.046Z,1.32
2018-09-15T16:15:55.299Z,0.80
2018-09-15T16:18:24.399Z,1.00
2018-09-15T16:20:52.586Z,1.40
2018-09-15T16:23:20.735Z,0.80
2018-09-15T16:25:48.989Z,0.95
2018-09-15T16:28:17.948Z,0.90
2018-09-15T16:30:46.106Z,0.95
2018-09-15T16:33:14.297Z,1.00
2018-09-15T16:35:42.523Z,1.20
2018-09-15T16:38:10.707Z,0.60
2018-09-15T16:40:39.113Z,0.80
2018-09-15T16:43:07.409Z,0.70
2018-09-15T16:45:35.762Z,1.00
2018-09-15T16:48:04.161Z,1.00
2018-09-15T16:50:32.351Z,1.17
2018-09-15T16:53:00.491Z,0.85
2018-09-15T16:55:28.958Z,0.78
2018-09-15T16:57:57.106Z,1.00
2018-09-15T17:00:25.310Z,0.95
2018-09-15T17:02:53.497Z,0.93
2018-09-15T17:05:21.781Z,1.90
2018-09-15T17:07:49.973Z,1.60
2018-09-15T17:10:18.148Z,1.30
2018-09-15T17:12:46.665Z,1.20
2018-09-15T17:15:14.890Z,1.80
2018-09-15T17:17:43.089Z,1.75
2018-09-15T17:20:12.226Z,2.30
2018-09-15T17:22:40.433Z,0.90
2018-09-15T17:25:08.597Z,1.00
2018-09-15T17:27:36.770Z,1.27
2018-09-15T17:30:05.161Z,0.95
2018-09-15T17:32:33.329Z,1.20
2018-09-15T17:35:01.530Z,1.10
2018-09-15T17:37:29.722Z,1.20
2018-09-15T17:39:59.678Z,0.90
2018-09-15T17:42:27.878Z,1.00
2018-09-15T17:44:56.714Z,1.40
2018-09-15T17:47:26.679Z,1.17
2018-09-15T17:49:55.461Z,1.40
2018-09-15T17:52:23.666Z,1.30
2018-09-15T17:54:51.987Z,1.20
2018-09-15T17:57:20.175Z,1.17
2018-09-15T17:59:48.462Z,1.53
2018-09-15T18:02:16.721Z,1.30
2018-09-15T18:04:45.233Z,1.70
2018-09-15T18:07:13.385Z,1.80
2018-09-15T18:09:41.733Z,1.60
2018-09-15T18:12:09.846Z,1.57
2018-09-15T18:14:38.059Z,1.90
2018-09-15T18:17:06.273Z,1.70
2018-09-15T18:19:35.640Z,1.90
2018-09-15T18:22:03.887Z,1.50
2018-09-15T18:24:32.056Z,1.47
2018-09-15T18:27:00.263Z,1.57
2018-09-15T18:29:28.421Z,1.80
2018-09-15T18:31:56.642Z,1.40
2018-09-15T18:34:24.814Z,1.30
2018-09-15T18:36:53.447Z,1.40
2018-09-15T18:39:21.438Z,1.30
2018-09-15T18:41:49.644Z,1.50
2018-09-15T18:44:17.849Z,1.43
2018-09-15T18:46:46.047Z,1.50
2018-09-15T18:49:15.950Z,1.33
2018-09-15T18:51:44.178Z,1.23
2018-09-15T18:54:12.381Z,1.20
2018-09-15T18:56:40.581Z,1.80
2018-09-15T18:59:08.766Z,3.70
2018-09-15T19:01:36.947Z,4.53
2018-09-15T19:04:05.106Z,4.10
2018-09-15T19:06:33.303Z,3.20
2018-09-15T19:09:01.703Z,3.07
2018-09-15T19:11:29.895Z,2.87
2018-09-15T19:13:58.120Z,2.57
2018-09-15T19:16:26.266Z,2.40
2018-09-15T19:18:55.965Z,2.17
2018-09-15T19:21:24.169Z,2.30
2018-09-15T19:23:53.103Z,2.20
2018-09-15T19:26:21.246Z,2.30
2018-09-15T19:28:49.462Z,2.10
2018-09-15T19:31:17.643Z,2.17
2018-09-15T19:33:45.815Z,2.37
2018-09-15T19:36:14.212Z,2.10
2018-09-15T19:38:43.321Z,2.20
2018-09-15T19:41:11.495Z,2.30
2018-09-15T19:43:39.665Z,2.03
2018-09-15T19:46:07.850Z,2.13
2018-09-15T19:48:36.070Z,2.63
2018-09-15T19:51:04.290Z,2.50
2018-09-15T19:53:32.906Z,2.50
2018-09-15T19:56:01.107Z,1.83
2018-09-15T19:58:29.294Z,2.27
2018-09-15T20:00:57.534Z,2.60
2018-09-15T20:03:26.330Z,2.90
2018-09-15T20:05:54.844Z,2.80
2018-09-15T20:08:23.361Z,3.10
2018-09-15T20:10:52.225Z,2.30
2018-09-15T20:13:20.389Z,2.10
2018-09-15T20:15:47.554Z,2.40
2018-09-15T20:18:14.726Z,1.93
2018-09-15T20:20:41.934Z,2.20
2018-09-15T20:23:10.106Z,2.03
2018-09-15T20:25:38.298Z,1.70
2018-09-15T20:28:06.478Z,2.07
2018-09-15T20:30:35.088Z,1.87
2018-09-15T20:33:03.659Z,1.83
2018-09-15T20:35:32.300Z,2.03
2018-09-15T20:38:00.543Z,2.07
2018-09-15T20:40:28.846Z,2.07
2018-09-15T20:42:56.943Z,2.40
2018-09-15T20:45:25.099Z,2.40
2018-09-15T20:47:53.287Z,2.77
2018-09-15T20:50:21.513Z,2.33
2018-09-15T20:52:49.709Z,2.33
2018-09-15T20:55:17.942Z,2.40
2018-09-15T20:57:46.102Z,2.50
2018-09-15T21:00:16.214Z,2.00
2018-09-15T21:02:45.080Z,2.10
2018-09-15T21:05:13.229Z,2.20
2018-09-15T21:07:41.427Z,2.77
2018-09-15T21:10:09.821Z,2.90
2018-09-15T21:12:38.067Z,2.50
2018-09-15T21:15:06.470Z,3.20
2018-09-15T21:17:34.658Z,5.00
2018-09-15T21:20:03.687Z,3.13
2018-09-15T21:22:31.885Z,4.20
2018-09-15T21:25:00.669Z,3.37
2018-09-15T21:27:28.900Z,2.80
2018-09-15T21:29:57.082Z,2.70
2018-09-15T21:32:25.282Z,2.47
2018-09-15T21:34:53.488Z,3.00
2018-09-15T21:37:21.877Z,2.87
2018-09-15T21:39:50.488Z,3.30
2018-09-15T21:42:18.684Z,3.80
2018-09-15T21:44:46.865Z,3.60
2018-09-15T21:47:15.031Z,3.37
2018-09-15T21:49:44.049Z,3.80
2018-09-15T21:52:13.164Z,3.20
2018-09-15T21:54:41.344Z,3.20
2018-09-15T21:57:09.587Z,2.97
2018-09-15T21:59:37.786Z,3.10
2018-09-15T22:02:06.355Z,3.03
2018-09-15T22:04:34.502Z,3.47
2018-09-15T22:07:02.667Z,3.40
2018-09-15T22:09:30.843Z,3.17
2018-09-15T22:11:59.303Z,3.00
2018-09-15T22:14:27.788Z,2.77
2018-09-15T22:16:55.965Z,2.97
2018-09-15T22:19:24.387Z,2.60
2018-09-15T22:21:52.549Z,2.70
2018-09-15T22:24:20.703Z,2.90
2018-09-15T22:26:48.862Z,3.07
2018-09-15T22:29:17.630Z,3.33
2018-09-15T22:31:48.588Z,2.97
2018-09-15T22:34:16.742Z,2.80
2018-09-15T22:36:44.879Z,2.97
2018-09-15T22:39:13.471Z,2.53
2018-09-15T22:41:41.613Z,2.53
2018-09-15T22:44:09.836Z,3.00
2018-09-15T22:46:38.006Z,2.87
2018-09-15T22:49:06.196Z,2.97
2018-09-15T22:51:34.441Z,3.07
2018-09-15T22:54:02.603Z,3.03
2018-09-15T22:56:30.769Z,3.23
2018-09-15T22:58:58.991Z,3.20
2018-09-15T23:01:27.197Z,3.37
2018-09-15T23:04:00.686Z,3.20
2018-09-15T23:06:29.322Z,3.07
2018-09-15T23:08:57.466Z,3.33
2018-09-15T23:11:25.644Z,3.00
2018-09-15T23:13:53.813Z,3.17
2018-09-15T23:16:22.002Z,3.10
2018-09-15T23:18:50.272Z,3.43
2018-09-15T23:21:18.471Z,3.53
2018-09-15T23:23:46.660Z,3.07
2018-09-15T23:26:14.821Z,3.33
2018-09-15T23:28:43.034Z,2.83
2018-09-15T23:31:11.466Z,3.50
2018-09-15T23:33:40.414Z,2.90
2018-09-15T23:36:08.695Z,2.93
2018-09-15T23:38:37.035Z,3.37
2018-09-15T23:41:05.751Z,2.93
2018-09-15T23:43:33.881Z,3.00
2018-09-15T23:46:02.050Z,3.20
2018-09-15T23:48:37.146Z,3.60
2018-09-15T23:51:06.035Z,3.63
2018-09-15T23:53:34.203Z,3.63
2018-09-15T23:56:04.088Z,3.27
2018-09-15T23:58:33.010Z,2.80
